Terminal Aerodrome Forecast
Issued by NWS

Current Version | Previous Version | Text Only | Print | Product List | Glossary On
Versions: 1 2 3 4 5 6 7 8 9 10 11 12 13 14 15 16 17 18 19 20 21 22 23 24
383
FTUS42 TJSJ 221728
TAFKPK
TAF
TKPK 221728Z 2218/2318 08017KT P6SM VCSH SCT018
      TEMPO 2218/2221 11013G18KT -SHRA BKN018
     FM231600 12012KT P6SM VCSH SCT018 SCT050 SCT100
     AMD NOT SKED 2302/2311=

USA.gov is the U.S. government's official web portal to all federal, state and local government web resources and services.